createdAt,value
2018-10-03T00:00:35.979Z,74.70
2018-10-03T00:03:07.800Z,74.70
2018-10-03T00:05:39.558Z,74.70
2018-10-03T00:08:11.227Z,74.80
2018-10-03T00:10:43.085Z,74.70
2018-10-03T00:13:15.597Z,74.70
2018-10-03T00:15:47.417Z,74.90
2018-10-03T00:18:19.082Z,75.00
2018-10-03T00:20:50.879Z,75.00
2018-10-03T00:23:22.789Z,75.10
2018-10-03T00:25:54.465Z,75.10
2018-10-03T00:28:26.245Z,75.00
2018-10-03T00:30:58.158Z,75.10
2018-10-03T00:33:29.962Z,75.20
2018-10-03T00:36:01.709Z,75.30
2018-10-03T00:38:33.444Z,75.30
2018-10-03T00:41:05.240Z,75.50
2018-10-03T00:43:37.410Z,75.60
2018-10-03T00:46:09.496Z,75.70
2018-10-03T00:48:41.297Z,75.90
2018-10-03T00:51:13.201Z,75.70
2018-10-03T00:53:44.944Z,76.60
2018-10-03T00:56:16.676Z,75.80
2018-10-03T00:58:48.445Z,75.80
2018-10-03T01:01:20.115Z,75.90
2018-10-03T01:03:52.041Z,76.00
2018-10-03T01:06:23.927Z,76.70
2018-10-03T01:08:55.580Z,76.00
2018-10-03T01:11:27.358Z,76.10
2018-10-03T01:13:59.094Z,76.30
2018-10-03T01:16:30.769Z,76.70
2018-10-03T01:19:02.608Z,76.90
2018-10-03T01:21:34.480Z,76.80
2018-10-03T01:24:06.521Z,77.70
2018-10-03T01:26:38.332Z,77.10
2018-10-03T01:29:10.164Z,76.90
2018-10-03T01:31:41.940Z,76.80
2018-10-03T01:34:13.582Z,77.00
2018-10-03T01:36:45.329Z,77.00
2018-10-03T01:39:16.997Z,76.60
2018-10-03T01:41:48.860Z,76.60
2018-10-03T01:44:20.618Z,76.70
2018-10-03T01:46:52.293Z,76.50
2018-10-03T01:49:24.059Z,76.40
2018-10-03T01:51:55.994Z,76.50
2018-10-03T01:54:27.784Z,76.60
2018-10-03T01:56:59.521Z,76.60
2018-10-03T01:59:31.201Z,76.50
2018-10-03T02:02:03.102Z,76.60
2018-10-03T02:04:34.919Z,76.60
2018-10-03T02:07:06.784Z,77.30
2018-10-03T02:09:38.619Z,76.60
2018-10-03T02:12:10.470Z,76.80
2018-10-03T02:14:42.343Z,76.60
2018-10-03T02:17:14.095Z,76.80
2018-10-03T02:19:45.798Z,76.90
2018-10-03T02:22:17.613Z,77.30
2018-10-03T02:24:49.295Z,77.30
2018-10-03T02:27:21.421Z,77.50
2018-10-03T02:29:53.230Z,77.60
2018-10-03T02:32:25.078Z,77.70
2018-10-03T02:34:56.741Z,78.00
2018-10-03T02:37:28.479Z,78.10
2018-10-03T02:40:00.162Z,78.40
2018-10-03T02:42:32.026Z,78.30
2018-10-03T02:45:03.987Z,78.50
2018-10-03T02:47:35.742Z,78.60
2018-10-03T02:50:07.732Z,78.60
2018-10-03T02:52:39.576Z,78.70
2018-10-03T02:55:11.319Z,78.70
2018-10-03T02:57:43.336Z,78.90
2018-10-03T03:00:15.229Z,79.00
2018-10-03T03:02:47.017Z,79.10
2018-10-03T03:05:18.763Z,79.20
2018-10-03T03:07:50.600Z,79.10
2018-10-03T03:10:22.363Z,79.30
2018-10-03T03:12:54.020Z,79.40
2018-10-03T03:15:25.798Z,79.50
2018-10-03T03:17:57.655Z,79.40
2018-10-03T03:20:29.609Z,79.50
2018-10-03T03:23:01.398Z,79.70
2018-10-03T03:25:33.179Z,79.70
2018-10-03T03:28:05.017Z,79.60
2018-10-03T03:30:36.759Z,79.60
2018-10-03T03:33:08.427Z,79.40
2018-10-03T03:35:40.384Z,79.50
2018-10-03T03:38:12.361Z,79.40
2018-10-03T03:40:44.052Z,79.40
2018-10-03T03:43:15.950Z,79.50
2018-10-03T03:45:47.713Z,79.40
2018-10-03T03:48:19.712Z,79.40
2018-10-03T03:50:51.455Z,79.50
2018-10-03T03:53:23.287Z,79.60
2018-10-03T03:55:55.051Z,79.50
2018-10-03T03:58:26.840Z,79.70
2018-10-03T04:00:58.690Z,79.60
2018-10-03T04:03:30.625Z,79.50
2018-10-03T04:06:02.505Z,79.50
2018-10-03T04:08:34.153Z,79.40
2018-10-03T04:11:06.065Z,79.70
2018-10-03T04:13:37.982Z,80.10
2018-10-03T04:16:09.947Z,80.20
2018-10-03T04:18:41.805Z,80.50
2018-10-03T04:21:13.592Z,80.50
2018-10-03T04:23:45.341Z,80.50
2018-10-03T04:26:17.239Z,80.40
2018-10-03T04:28:48.953Z,80.50
2018-10-03T04:31:20.685Z,80.60
2018-10-03T04:33:52.373Z,80.60
2018-10-03T04:36:24.105Z,80.70
2018-10-03T04:38:57.242Z,80.70
2018-10-03T04:41:29.072Z,80.90
2018-10-03T04:44:00.823Z,80.90
2018-10-03T04:46:32.897Z,81.10
2018-10-03T04:49:04.770Z,81.20
2018-10-03T04:51:36.432Z,80.70
2018-10-03T04:54:08.371Z,81.10
2018-10-03T04:56:40.234Z,81.10
2018-10-03T04:59:11.921Z,81.10
2018-10-03T05:01:43.774Z,81.10
2018-10-03T05:04:15.610Z,81.10
2018-10-03T05:06:47.465Z,81.30
2018-10-03T05:09:19.142Z,81.20
2018-10-03T05:11:50.810Z,81.40
2018-10-03T05:14:22.758Z,80.60
2018-10-03T05:16:54.643Z,81.30
2018-10-03T05:19:26.385Z,80.90
2018-10-03T05:21:58.058Z,81.40
2018-10-03T05:24:29.921Z,81.40
2018-10-03T05:27:01.668Z,81.30
2018-10-03T05:29:33.505Z,81.50
2018-10-03T05:32:05.373Z,81.90
2018-10-03T05:34:37.042Z,82.50
2018-10-03T05:37:08.995Z,83.20
2018-10-03T05:39:40.775Z,83.50
2018-10-03T05:42:12.509Z,84.50
2018-10-03T05:44:44.182Z,84.70
2018-10-03T05:47:16.059Z,85.20
2018-10-03T05:49:47.796Z,85.20
2018-10-03T05:52:19.465Z,85.60
2018-10-03T05:54:51.285Z,85.90
2018-10-03T05:57:22.961Z,86.00
2018-10-03T05:59:54.766Z,86.00
2018-10-03T06:02:26.716Z,86.00
2018-10-03T06:04:58.459Z,86.30
2018-10-03T06:07:30.194Z,86.40
2018-10-03T06:10:02.080Z,86.70
2018-10-03T06:12:34.159Z,86.90
2018-10-03T06:15:06.495Z,87.30
2018-10-03T06:17:38.265Z,87.40
2018-10-03T06:20:10.358Z,87.50
2018-10-03T06:22:42.110Z,87.50
2018-10-03T06:25:14.079Z,88.10
2018-10-03T06:27:45.825Z,87.20
2018-10-03T06:30:17.683Z,87.30
2018-10-03T06:32:49.425Z,87.20
2018-10-03T06:35:21.106Z,87.20
2018-10-03T06:37:52.958Z,87.10
2018-10-03T06:40:24.950Z,86.80
2018-10-03T06:42:56.790Z,87.10
2018-10-03T06:45:28.704Z,86.80
2018-10-03T06:48:00.514Z,86.40
2018-10-03T06:50:32.349Z,86.20
2018-10-03T06:53:04.010Z,86.40
2018-10-03T06:55:35.790Z,86.00
2018-10-03T06:58:07.529Z,85.70
2018-10-03T07:00:39.492Z,85.70
2018-10-03T07:03:11.154Z,85.50
2018-10-03T07:05:42.867Z,85.60
2018-10-03T07:08:14.762Z,86.30
2018-10-03T07:10:46.735Z,85.70
2018-10-03T07:13:18.393Z,85.80
2018-10-03T07:15:50.212Z,85.70
2018-10-03T07:18:22.042Z,85.70
2018-10-03T07:20:53.779Z,85.70
2018-10-03T07:23:25.564Z,86.10
2018-10-03T07:25:57.555Z,86.10
2018-10-03T07:28:29.466Z,86.10
2018-10-03T07:31:01.146Z,86.30
2018-10-03T07:33:33.044Z,86.40
2018-10-03T07:36:05.143Z,86.70
2018-10-03T07:38:36.901Z,86.80
2018-10-03T07:41:08.807Z,86.90
2018-10-03T07:43:40.594Z,87.00
2018-10-03T07:46:12.517Z,87.00
2018-10-03T07:48:44.241Z,87.10
2018-10-03T07:51:16.022Z,87.10
2018-10-03T07:53:47.770Z,87.20
2018-10-03T07:56:19.724Z,87.30
2018-10-03T07:58:51.479Z,87.30
2018-10-03T08:01:23.270Z,87.50
2018-10-03T08:03:55.215Z,87.20
2018-10-03T08:06:26.869Z,87.30
2018-10-03T08:08:58.539Z,87.50
2018-10-03T08:11:30.389Z,87.90
2018-10-03T08:14:02.171Z,87.20
2018-10-03T08:16:34.127Z,87.10
2018-10-03T08:19:06.008Z,87.00
2018-10-03T08:21:37.738Z,86.90
2018-10-03T08:24:09.742Z,86.90
2018-10-03T08:26:41.581Z,86.80
2018-10-03T08:29:13.321Z,86.80
2018-10-03T08:31:45.270Z,86.20
2018-10-03T08:34:17.169Z,86.00
2018-10-03T08:36:49.031Z,86.00
2018-10-03T08:39:20.791Z,85.70
2018-10-03T08:41:52.544Z,85.50
2018-10-03T08:44:24.529Z,85.50
2018-10-03T08:46:56.251Z,85.50
2018-10-03T08:49:28.129Z,85.30
2018-10-03T08:51:59.912Z,85.30
2018-10-03T08:54:31.729Z,85.10
2018-10-03T08:57:03.559Z,84.90
2018-10-03T08:59:35.369Z,84.50
2018-10-03T09:02:16.902Z,84.60
2018-10-03T09:04:58.308Z,84.10
2018-10-03T09:07:32.047Z,83.80
2018-10-03T09:10:03.993Z,83.50
2018-10-03T09:12:35.673Z,83.10
2018-10-03T09:15:07.632Z,82.40
2018-10-03T09:17:39.673Z,81.70
2018-10-03T09:20:11.435Z,81.00
2018-10-03T09:22:43.097Z,80.70
2018-10-03T09:25:14.937Z,80.30
2018-10-03T09:27:46.744Z,80.20
2018-10-03T09:30:18.580Z,79.90
2018-10-03T09:32:50.688Z,79.20
2018-10-03T09:35:22.493Z,78.20
2018-10-03T09:37:54.562Z,78.20
2018-10-03T09:40:26.342Z,78.30
2018-10-03T09:42:58.086Z,77.70
2018-10-03T09:45:29.835Z,77.70
2018-10-03T09:48:01.701Z,77.20
2018-10-03T09:50:33.485Z,76.70
2018-10-03T09:53:05.229Z,76.80
2018-10-03T09:55:37.076Z,76.70
2018-10-03T09:58:09.090Z,76.70
2018-10-03T10:00:45.736Z,76.70
2018-10-03T10:03:17.709Z,76.50
2018-10-03T10:05:49.459Z,75.90
2018-10-03T10:08:21.302Z,76.30
2018-10-03T10:10:53.088Z,76.00
2018-10-03T10:13:24.825Z,75.50
2018-10-03T10:15:56.590Z,75.70
2018-10-03T10:18:28.363Z,75.30
2018-10-03T10:21:00.200Z,75.40
2018-10-03T10:23:31.975Z,75.10
2018-10-03T10:26:03.946Z,74.80
2018-10-03T10:28:35.688Z,73.70
2018-10-03T10:31:07.565Z,72.90
2018-10-03T10:33:39.390Z,72.60
2018-10-03T10:36:11.065Z,72.30
2018-10-03T10:38:42.744Z,71.50
2018-10-03T10:41:14.821Z,68.70
2018-10-03T10:43:46.433Z,68.90
2018-10-03T10:46:18.321Z,67.80
2018-10-03T10:48:50.157Z,67.00
2018-10-03T10:51:21.838Z,66.70
2018-10-03T10:53:53.679Z,66.20
2018-10-03T10:56:25.430Z,66.20
2018-10-03T10:58:57.111Z,66.30
2018-10-03T11:01:28.970Z,65.90
2018-10-03T11:04:00.801Z,65.20
2018-10-03T11:06:32.689Z,63.90
2018-10-03T11:09:05.310Z,64.50
2018-10-03T11:11:37.066Z,65.70
2018-10-03T11:14:09.051Z,65.90
2018-10-03T11:16:40.753Z,65.60
2018-10-03T11:19:12.690Z,66.30
2018-10-03T11:21:44.484Z,65.60
2018-10-03T11:24:16.509Z,65.20
2018-10-03T11:26:48.276Z,65.20
2018-10-03T11:29:20.146Z,63.80
2018-10-03T11:31:51.931Z,62.70
2018-10-03T11:34:23.675Z,62.80
2018-10-03T11:36:55.451Z,60.90
2018-10-03T11:39:27.317Z,60.70
2018-10-03T11:41:59.153Z,59.60
2018-10-03T11:44:31.006Z,59.90
2018-10-03T11:47:02.980Z,60.70
2018-10-03T11:49:34.762Z,58.50
2018-10-03T11:52:06.706Z,58.40
2018-10-03T11:54:38.581Z,58.00
2018-10-03T11:57:10.822Z,58.10
2018-10-03T11:59:42.487Z,57.50
2018-10-03T12:02:14.150Z,57.10
2018-10-03T12:04:45.925Z,55.70
2018-10-03T12:07:17.786Z,55.70
2018-10-03T12:09:49.664Z,57.10
2018-10-03T12:12:21.577Z,57.30
2018-10-03T12:14:53.441Z,56.60
2018-10-03T12:17:25.226Z,56.70
2018-10-03T12:19:57.062Z,53.30
2018-10-03T12:22:28.721Z,53.60
2018-10-03T12:25:00.521Z,53.50
2018-10-03T12:27:32.370Z,54.00
2018-10-03T12:30:04.333Z,54.80
2018-10-03T12:32:36.178Z,55.40
2018-10-03T12:35:07.947Z,54.80
2018-10-03T12:37:39.777Z,54.70
2018-10-03T12:40:11.573Z,55.50
2018-10-03T12:42:43.302Z,55.70
2018-10-03T12:45:15.118Z,55.80
2018-10-03T12:47:46.841Z,56.90
2018-10-03T12:50:18.729Z,56.70
2018-10-03T12:52:50.382Z,56.50
2018-10-03T12:55:22.434Z,56.10
2018-10-03T12:57:54.173Z,56.20
2018-10-03T13:00:33.733Z,56.30
2018-10-03T13:03:05.675Z,57.10
2018-10-03T13:05:37.525Z,57.10
2018-10-03T13:08:09.301Z,56.60
2018-10-03T13:10:40.972Z,55.70
2018-10-03T13:13:12.836Z,54.70
2018-10-03T13:15:44.495Z,54.80
2018-10-03T13:18:16.322Z,54.00
2018-10-03T13:20:48.022Z,54.50
2018-10-03T13:23:19.853Z,53.50
2018-10-03T13:25:51.834Z,52.80
2018-10-03T13:28:23.427Z,52.60
2018-10-03T13:30:55.333Z,53.00
2018-10-03T13:33:27.074Z,53.30
2018-10-03T13:35:58.866Z,53.30
2018-10-03T13:38:30.619Z,53.50
2018-10-03T13:41:02.505Z,54.00
2018-10-03T13:43:34.351Z,53.90
2018-10-03T13:46:06.318Z,53.90
2018-10-03T13:48:38.062Z,54.00
2018-10-03T13:51:10.019Z,53.30
2018-10-03T13:53:41.675Z,52.30
2018-10-03T13:56:13.345Z,51.20
2018-10-03T13:58:45.081Z,50.50
2018-10-03T14:01:16.742Z,50.10
2018-10-03T14:03:48.499Z,50.70
2018-10-03T14:06:20.250Z,50.40
2018-10-03T14:08:51.920Z,51.00
2018-10-03T14:11:23.694Z,51.10
2018-10-03T14:13:55.531Z,50.00
2018-10-03T14:16:27.423Z,49.10
2018-10-03T14:18:59.178Z,48.70
2018-10-03T14:21:31.109Z,48.60
2018-10-03T14:24:02.786Z,47.50
2018-10-03T14:26:34.534Z,47.70
2018-10-03T14:29:06.304Z,48.40
2018-10-03T14:31:38.166Z,49.00
2018-10-03T14:34:10.033Z,48.20
2018-10-03T14:36:41.869Z,48.00
2018-10-03T14:39:13.765Z,47.50
2018-10-03T14:41:45.533Z,47.40
2018-10-03T14:44:17.374Z,47.40
2018-10-03T14:46:49.365Z,47.90
2018-10-03T14:49:21.194Z,47.10
2018-10-03T14:51:52.953Z,47.40
2018-10-03T14:54:24.882Z,46.60
2018-10-03T14:56:56.661Z,47.00
2018-10-03T14:59:28.426Z,47.00
2018-10-03T15:02:00.187Z,47.50
2018-10-03T15:04:31.863Z,47.30
2018-10-03T15:07:03.798Z,47.80
2018-10-03T15:09:35.485Z,48.40
2018-10-03T15:12:07.283Z,49.00
2018-10-03T15:14:39.081Z,48.70
2018-10-03T15:17:10.861Z,48.70
2018-10-03T15:19:42.693Z,48.90
2018-10-03T15:22:14.493Z,49.40
2018-10-03T15:24:46.265Z,51.20
2018-10-03T15:27:18.108Z,51.90
2018-10-03T15:29:49.786Z,52.40
2018-10-03T15:32:21.597Z,52.70
2018-10-03T15:34:53.257Z,52.70
2018-10-03T15:37:25.026Z,53.00
2018-10-03T15:39:56.876Z,53.10
2018-10-03T15:42:28.697Z,53.30
2018-10-03T15:45:00.522Z,54.00
2018-10-03T15:47:32.273Z,54.20
2018-10-03T15:50:04.195Z,53.90
2018-10-03T15:52:36.004Z,54.00
2018-10-03T15:55:07.966Z,53.90
2018-10-03T15:57:39.813Z,54.30
2018-10-03T16:00:11.592Z,54.60
2018-10-03T16:02:43.337Z,54.60
2018-10-03T16:05:15.372Z,54.40
2018-10-03T16:07:47.147Z,54.80
2018-10-03T16:10:19.086Z,55.60
2018-10-03T16:12:50.856Z,55.20
2018-10-03T16:15:22.754Z,55.40
2018-10-03T16:17:55.129Z,55.30
2018-10-03T16:20:26.853Z,55.50
2018-10-03T16:22:58.542Z,55.60
2018-10-03T16:25:30.373Z,55.60
2018-10-03T16:28:02.269Z,55.70
2018-10-03T16:30:33.911Z,56.20
2018-10-03T16:33:05.758Z,56.40
2018-10-03T16:35:37.470Z,56.50
2018-10-03T16:38:09.186Z,56.50
2018-10-03T16:40:41.138Z,56.30
2018-10-03T16:43:12.794Z,56.50
2018-10-03T16:45:44.468Z,56.50
2018-10-03T16:48:16.304Z,56.70
2018-10-03T16:50:47.970Z,56.70
2018-10-03T16:53:19.650Z,56.80
2018-10-03T16:55:51.583Z,56.30
2018-10-03T16:58:23.249Z,56.80
2018-10-03T17:00:55.017Z,56.90
2018-10-03T17:03:26.863Z,57.10
2018-10-03T17:05:58.521Z,57.30
2018-10-03T17:08:30.194Z,57.00
2018-10-03T17:11:02.145Z,57.00
2018-10-03T17:13:33.927Z,57.00
2018-10-03T17:16:05.669Z,57.30
2018-10-03T17:18:37.430Z,57.20
2018-10-03T17:21:09.403Z,57.40
2018-10-03T17:23:41.170Z,57.30
2018-10-03T17:26:12.997Z,57.40
2018-10-03T17:28:44.692Z,57.50
2018-10-03T17:31:16.437Z,57.30
2018-10-03T17:33:48.190Z,57.40
2018-10-03T17:36:19.944Z,57.50
2018-10-03T17:38:51.922Z,57.60
2018-10-03T17:41:23.756Z,57.90
2018-10-03T17:43:55.428Z,58.00
2018-10-03T17:46:27.174Z,58.00
2018-10-03T17:48:59.099Z,58.30
2018-10-03T17:51:30.805Z,58.50
2018-10-03T17:54:02.551Z,58.80
2018-10-03T17:56:34.318Z,59.20
2018-10-03T17:59:06.309Z,59.50
2018-10-03T18:01:41.933Z,60.50
2018-10-03T18:04:13.711Z,60.00
2018-10-03T18:06:45.558Z,60.40
2018-10-03T18:09:17.293Z,60.70
2018-10-03T18:11:49.082Z,60.90
2018-10-03T18:14:21.043Z,61.20
2018-10-03T18:16:52.789Z,61.80
2018-10-03T18:19:24.579Z,61.90
2018-10-03T18:21:56.350Z,62.30
2018-10-03T18:24:28.166Z,62.30
2018-10-03T18:27:00.061Z,62.50
2018-10-03T18:29:32.021Z,63.00
2018-10-03T18:32:03.826Z,63.20
2018-10-03T18:34:35.644Z,63.50
2018-10-03T18:37:07.519Z,63.70
2018-10-03T18:39:39.269Z,63.70
2018-10-03T18:42:11.110Z,63.80
2018-10-03T18:44:43.052Z,63.80
2018-10-03T18:47:14.844Z,63.90
2018-10-03T18:49:46.597Z,63.70
2018-10-03T18:52:18.461Z,63.50
2018-10-03T18:54:50.214Z,63.80
2018-10-03T18:57:21.988Z,64.30
2018-10-03T18:59:53.809Z,65.10
2018-10-03T19:02:25.594Z,65.40
2018-10-03T19:04:57.355Z,65.60
2018-10-03T19:07:29.193Z,67.20
2018-10-03T19:10:00.857Z,66.50
2018-10-03T19:12:32.614Z,66.20
2018-10-03T19:15:04.934Z,67.00
2018-10-03T19:17:36.845Z,66.90
2018-10-03T19:20:08.745Z,66.90
2018-10-03T19:22:40.600Z,66.70
2018-10-03T19:25:12.633Z,66.40
2018-10-03T19:27:44.293Z,66.40
2018-10-03T19:30:15.961Z,66.40
2018-10-03T19:32:47.806Z,66.70
2018-10-03T19:35:19.558Z,66.90
2018-10-03T19:37:51.202Z,67.00
2018-10-03T19:40:22.974Z,67.50
2018-10-03T19:42:54.791Z,67.90
2018-10-03T19:45:26.618Z,68.50
2018-10-03T19:47:58.623Z,69.20
2018-10-03T19:50:30.435Z,68.40
2018-10-03T19:53:02.036Z,68.70
2018-10-03T19:55:33.757Z,69.20
2018-10-03T19:58:05.591Z,69.00
2018-10-03T20:00:37.390Z,68.80
2018-10-03T20:03:09.134Z,68.80
2018-10-03T20:05:41.009Z,69.00
2018-10-03T20:08:12.870Z,69.10
2018-10-03T20:10:44.697Z,69.40
2018-10-03T20:13:16.449Z,69.60
2018-10-03T20:15:48.318Z,69.70
2018-10-03T20:18:20.111Z,70.00
2018-10-03T20:20:52.152Z,69.30
2018-10-03T20:23:23.913Z,69.20
2018-10-03T20:25:56.145Z,69.40
2018-10-03T20:28:28.015Z,70.30
2018-10-03T20:30:59.830Z,69.40
2018-10-03T20:33:31.904Z,69.90
2018-10-03T20:36:03.657Z,70.30
2018-10-03T20:38:35.858Z,70.60
2018-10-03T20:41:07.637Z,70.90
2018-10-03T20:43:39.416Z,71.30
2018-10-03T20:46:11.082Z,71.50
2018-10-03T20:48:42.922Z,71.40
2018-10-03T20:51:14.651Z,71.50
2018-10-03T20:53:51.051Z,71.40
2018-10-03T20:56:22.933Z,71.60
2018-10-03T20:58:54.591Z,71.70
2018-10-03T21:01:26.230Z,71.70
2018-10-03T21:03:58.239Z,72.00
2018-10-03T21:06:33.363Z,71.30
2018-10-03T21:09:06.950Z,70.90
2018-10-03T21:11:38.653Z,70.70
2018-10-03T21:14:10.468Z,70.90
2018-10-03T21:16:42.205Z,71.40
2018-10-03T21:19:13.868Z,71.90
2018-10-03T21:21:45.541Z,72.60
2018-10-03T21:24:17.526Z,73.00
2018-10-03T21:26:49.381Z,73.20
2018-10-03T21:29:21.117Z,72.90
2018-10-03T21:31:52.880Z,73.40
2018-10-03T21:34:24.524Z,73.50
2018-10-03T21:36:56.189Z,73.40
2018-10-03T21:39:27.932Z,74.00
2018-10-03T21:41:59.594Z,74.90
2018-10-03T21:44:31.257Z,74.20
2018-10-03T21:47:03.009Z,74.00
2018-10-03T21:49:34.932Z,74.10
2018-10-03T21:52:06.645Z,74.30
2018-10-03T21:54:38.420Z,74.20
2018-10-03T21:57:10.154Z,73.90
2018-10-03T21:59:41.822Z,73.60
2018-10-03T22:02:13.664Z,73.00
2018-10-03T22:04:45.410Z,73.20
2018-10-03T22:07:17.096Z,73.10
2018-10-03T22:09:48.834Z,73.60
2018-10-03T22:12:20.493Z,73.90
2018-10-03T22:14:52.170Z,74.40
2018-10-03T22:17:23.945Z,74.30
2018-10-03T22:19:57.321Z,74.50
2018-10-03T22:22:29.028Z,75.10
2018-10-03T22:25:00.890Z,75.50
2018-10-03T22:27:32.679Z,75.30
2018-10-03T22:30:04.686Z,75.40
2018-10-03T22:32:36.504Z,75.60
2018-10-03T22:35:08.483Z,74.70
2018-10-03T22:37:40.151Z,74.50
2018-10-03T22:40:11.801Z,74.80
2018-10-03T22:42:43.642Z,74.70
2018-10-03T22:45:15.524Z,75.10
2018-10-03T22:47:47.251Z,75.70
2018-10-03T22:50:19.164Z,75.90
2018-10-03T22:52:51.014Z,75.40
2018-10-03T22:55:22.847Z,75.00
2018-10-03T22:57:54.610Z,74.70
2018-10-03T23:00:26.286Z,74.70
2018-10-03T23:02:58.133Z,75.00
2018-10-03T23:05:29.884Z,75.40
2018-10-03T23:08:01.645Z,76.20
2018-10-03T23:10:33.515Z,76.90
2018-10-03T23:13:05.299Z,77.30
2018-10-03T23:15:37.153Z,76.90
2018-10-03T23:18:09.110Z,77.20
2018-10-03T23:20:41.060Z,76.90
2018-10-03T23:23:12.844Z,77.50
2018-10-03T23:25:44.580Z,77.50
2018-10-03T23:28:16.329Z,77.60
2018-10-03T23:30:47.993Z,77.60
2018-10-03T23:33:19.676Z,78.00
2018-10-03T23:35:51.542Z,78.10
2018-10-03T23:38:23.270Z,78.40
2018-10-03T23:40:55.047Z,77.80
2018-10-03T23:43:26.886Z,77.50
2018-10-03T23:45:58.667Z,75.90
2018-10-03T23:48:30.541Z,75.40
2018-10-03T23:51:02.393Z,74.70
2018-10-03T23:53:34.273Z,73.70
2018-10-03T23:56:06.125Z,75.50
2018-10-03T23:58:37.957Z,76.50
